KRKR/RKR METAR and TAF weather

Enter ICAO airport designator
Station Type Date Time Source
KRKR METAR 2024/07/23 17:35 UTC NOAA

KRKR 231735Z AUTO 08005KT 10SM SCT017 SCT100 28/22 A3007 RMK AO2


Station Type Date Time Source
KRKR Decoded METAR 2024/07/23 17:35 UTC NOAA

Poteau, Robert S Kerr Airport, OK, United States (KRKR) 35-01-18N 094-37-17W
Jul 23, 2024 - 01:35 PM EDT / 2024.07.23 1735 UTC
Wind: from the E (080 degrees) at 6 MPH (5 KT):0
Visibility: 10 mile(s):0
Sky conditions: partly cloudy
Temperature: 82 F (28 C)
Dew Point: 71 F (22 C)
Relative Humidity: 69%
Pressure (altimeter): 30.07 in. Hg (1018 hPa)
ob: KRKR 231735Z AUTO 08005KT 10SM SCT017 SCT100 28/22 A3007 RMK AO2
cycle: 17

Station Type Date Time Source
KRKR TAF UTC NOAA

Error!

Example: see airport list